CheckWX is a tool to help pilots better visualize weather data.  It is not intended as a substitute for an official pre-flight weather briefing.

22:15:37 UTC

1A6 METAR
Middlesboro-Bell County Airport
Middlesboro, Kentucky, USA
Current

41 mins ago

K1A6 152135Z AUTO 20005KT 10SM CLR 30/21 A3012 RMK AO2 T03040212
Observed
Jul-15 @ 21:35 UTC
Wind
  • 200° at 5 KTS
Visibility
10 SM
Flight Rules
VFR
Cloud Levels
  • Clear skies
Temperature
30°C / 86°F
Dewpoint
21°C / 70°F
Heat Index
33°C / 91°F
Humidity
59%
Altimeter
30.12" Hg
Pressure
1020.02 hPa
Previous

1 hour ago

K1A6 152115Z AUTO 20005KT 10SM CLR 31/21 A3013 RMK AO2 LTG DSNT NE T03050205
Observed
Jul-15 @ 21:15 UTC
Wind
  • 200° at 5 KTS
Visibility
10 SM
Flight Rules
VFR
Cloud Levels
  • Clear skies
Temperature
31°C / 88°F
Dewpoint
21°C / 70°F
Heat Index
34°C / 93°F
Humidity
55%
Altimeter
30.13" Hg
Pressure
1020.32 hPa
Previous

1 hour ago

K1A6 152055Z AUTO 20004KT 10SM CLR 31/20 A3013 RMK AO2 T03080204
Observed
Jul-15 @ 20:55 UTC
Wind
  • 200° at 4 KTS
Visibility
10 SM
Flight Rules
VFR
Cloud Levels
  • Clear skies
Temperature
31°C / 88°F
Dewpoint
20°C / 68°F
Heat Index
33°C / 92°F
Humidity
52%
Altimeter
30.13" Hg
Pressure
1020.32 hPa